Flight Track Log - Related Links

Times and Time Zones

All times are in EDT time to prevent confusion due to time zone crossing. See the JBU1933 flight status page for this flight to view local times or setup timezone preferences in your user account.

Time Position Orientation Groundspeed Altitude Reporting Facility
EDT Latitude Longitude Course Direction KTS MPH feet Rate Location/Type
Wed 10:51:17 AM 28.4500 -81.3000 152° Southeast 157 181 900  Level Orlando TRACON
Wed 10:51:59 AM 28.4667 -81.2667 60° Northeast 196 226 2,100 1,481 Climbing Orlando TRACON
Wed 10:53:51 AM 28.5075 -81.1611 66° East 262 302 4,700 2,000 Climbing Miami Center
Wed 10:54:53 AM 28.4744 -81.0758 114° Southeast 289 333 7,900 3,097 Climbing Miami Center
Wed 10:55:00 AM 28.1677 -80.8383 146° Southeast  Level Estimated
Wed 10:55:55 AM 28.4153 -80.9769 124° Southeast 319 367 11,100  Level Miami Center
Wed 10:56:00 AM 28.1020 -80.7210 152° Southeast  Level Estimated
Wed 10:57:55 AM 28.2603 -80.8092 136° Southeast 410 472 14,200  Level Miami Center
Wed 11:02:04 AM 27.9064 -80.4275 138° Southeast 431 496 22,900 1,987 Climbing Miami Center
Wed 11:03:06 AM 27.8206 -80.3361 137° Southeast 440 506 24,500 1,419 Climbing Miami Center
Wed 11:05:10 AM 27.6181 -80.1192 136° Southeast 456 525 27,300 1,219 Climbing Miami Center
Wed 11:06:00 AM 27.5488 -80.0686 136° Southeast  Level FlightAware Approximate
Wed 11:06:13 AM 27.5231 -80.0194 137° Southeast 462 532 28,300  Level Miami Center
Wed 11:07:00 AM 27.4607 -79.9773 138° Southeast  Level FlightAware Approximate
Wed 11:08:17 AM 27.3175 -79.8011 137° Southeast 483 556 30,500  Level Miami Center
Wed 11:09:19 AM 27.2169 -79.6947 137° Southeast 478 550 31,700 1,008 Climbing Miami Center
Wed 11:10:22 AM 27.1222 -79.5953 137° Southeast 479 551 32,600 1,104 Climbing Miami Center
Wed 11:11:24 AM 27.0319 -79.4733 130° Southeast 489 563 34,000 1,306 Climbing Miami Center
Wed 11:12:26 AM 26.9556 -79.3400 123° Southeast 484 557 35,300 919 Climbing Miami Center
Wed 11:13:28 AM 26.8847 -79.2217 124° Southeast 479 551 35,900 435 Climbing Miami Center
Wed 11:14:30 AM 26.8111 -79.0964 123° Southeast 483 556 36,200 528 Climbing Miami Center
Wed 11:15:33 AM 26.7350 -78.9708 124° Southeast 484 557 37,000 384 Climbing Miami Center
Wed 11:16:35 AM 26.6453 -78.8200 124° Southeast 484 557 37,000  Level Miami Center
Wed 11:17:37 AM 26.5681 -78.6903 124° Southeast 495 570 37,000  Level Miami Center
Wed 11:18:39 AM 26.4856 -78.5481 123° Southeast 502 578 37,000  Level Miami Center
Wed 11:20:44 AM 26.3331 -78.2914 124° Southeast 496 571 37,000  Level Miami Center
Wed 11:21:46 AM 26.2492 -78.1525 124° Southeast 491 565 37,000  Level Miami Center
Wed 11:22:48 AM 26.1736 -78.0261 124° Southeast 490 564 37,000  Level Miami Center
Wed 11:23:51 AM 26.0975 -77.8989 124° Southeast 491 565 37,000  Level Miami Center
Wed 11:24:53 AM 26.0122 -77.7597 124° Southeast 492 566 37,000  Level Miami Center
Wed 11:25:55 AM 25.9364 -77.6322 123° Southeast 491 565 37,000  Level Miami Center
Wed 11:26:57 AM 25.8608 -77.5078 124° Southeast 489 563 37,000  Level Miami Center
Wed 11:30:04 AM 25.6258 -77.1214 124° Southeast 487 560 37,000  Level Miami Center
Wed 11:32:09 AM 25.4650 -76.8556 124° Southeast 491 565 37,000  Level Miami Center
Wed 11:34:13 AM 25.3022 -76.5925 124° Southeast 492 566 37,000  Level Miami Center
Wed 11:35:15 AM 25.2242 -76.4661 124° Southeast 493 567 37,000  Level Miami Center
Wed 11:36:17 AM 25.1475 -76.3417 124° Southeast 493 567 37,000  Level Miami Center
Wed 11:37:20 AM 25.0611 -76.2028 124° Southeast 493 567 37,000  Level Miami Center
Wed 11:38:22 AM 24.9819 -76.0767 125° Southeast 494 568 37,000  Level Miami Center
Wed 11:40:26 AM 24.8222 -75.8222 125° Southeast 493 567 37,000  Level Miami Center
Wed 11:41:29 AM 24.7458 -75.6986 124° Southeast 489 563 37,000  Level Miami Center
Wed 11:42:31 AM 24.6667 -75.5747 125° Southeast 489 563 37,000  Level Miami Center
Wed 11:44:35 AM 24.5100 -75.3267 125° Southeast 491 565 37,000  Level Miami Center
Wed 11:45:38 AM 24.4161 -75.1781 125° Southeast 491 565 37,000  Level Miami Center
Wed 11:47:42 AM 24.2578 -74.9325 125° Southeast 491 565 37,000  Level Miami Center
Wed 11:49:47 AM 24.0989 -74.6858 125° Southeast 492 566 37,000  Level Miami Center
Wed 11:50:49 AM 24.0233 -74.5642 124° Southeast 486 559 37,000  Level Miami Center
Wed 11:53:55 AM 23.7694 -74.1753 125° Southeast 490 564 37,000  Level Miami Center
Wed 11:54:58 AM 23.6911 -74.0528 125° Southeast 489 563 37,000  Level Miami Center
Wed 11:56:00 AM 23.6117 -73.9339 126° Southeast 488 562 37,000  Level Miami Center
Wed 11:57:02 AM 23.5331 -73.8128 125° Southeast 488 562 37,000  Level Miami Center
Wed 11:59:00 AM 23.4405 -73.6767 125° Southeast  Level FlightAware Approximate
Wed 11:59:07 AM 23.3589 -73.5467 125° Southeast 488 562 37,000  Level Miami Center
Wed 12:00:09 PM 23.2814 -73.4283 125° Southeast 484 557 37,000  Level Miami Center
Wed 12:01:11 PM 23.2039 -73.3086 125° Southeast 484 557 37,000  Level Miami Center
Wed 12:04:18 PM 22.9667 -72.9514 125° Southeast 477 549 37,000  Level Miami Center
Wed 12:05:20 PM 22.8897 -72.8342 125° Southeast 477 549 37,000  Level Miami Center
Wed 12:06:22 PM 22.7953 -72.6956 126° Southeast 476 548 37,000  Level Miami Center
Wed 12:08:27 PM 22.6403 -72.4628 126° Southeast 476 548 37,000  Level Miami Center
Wed 12:09:29 PM 22.5633 -72.3461 126° Southeast 476 548 37,000  Level Miami Center
Wed 12:11:34 PM 22.4061 -72.1139 126° Southeast 477 549 37,000  Level Miami Center
Wed 12:12:36 PM 22.3125 -71.9744 126° Southeast 477 549 37,000  Level Miami Center
Wed 12:14:40 PM 22.1556 -71.7436 126° Southeast 476 548 37,000  Level Miami Center
Wed 12:15:43 PM 22.0769 -71.6289 126° Southeast 476 548 37,000  Level Miami Center
Wed 12:18:49 PM 21.8258 -71.2594 126° Southeast 476 548 37,000  Level Miami Center
Wed 12:20:54 PM 21.6675 -71.0269 124° Southeast 476 548 37,000  Level Miami Center
Wed 12:21:56 PM 21.5875 -70.9103 126° Southeast 476 548 37,000  Level Miami Center
Wed 12:24:00 PM 21.4745 -70.7504 126° Southeast  Level FlightAware Approximate
Wed 12:24:00 PM 21.4269 -70.6806 127° Southeast 476 548 37,000  Level Miami Center
Wed 12:25:03 PM 21.3475 -70.5650 126° Southeast 475 547 37,000  Level Miami Center
Wed 12:26:05 PM 21.2539 -70.4297 127° Southeast 475 547 37,000  Level Miami Center
Wed 12:27:07 PM 21.1750 -70.3169 127° Southeast 475 547 37,000  Level Miami Center
Wed 12:29:12 PM 21.0200 -70.0942 127° Southeast 470 541 37,000  Level Miami Center
Wed 12:31:16 PM 20.8639 -69.8717 127° Southeast 469 540 37,000  Level Miami Center
Wed 12:32:18 PM 20.7708 -69.7383 127° Southeast 468 539 37,000  Level Miami Center
Wed 12:35:25 PM 20.5408 -69.4122 127° Southeast 458 527 37,000  Level Miami Center
Wed 12:36:27 PM 20.4642 -69.3028 127° Southeast 458 527 37,000  Level Miami Center
Wed 12:37:30 PM 20.3731 -69.1736 127° Southeast 458 527 37,000  Level Miami Center
Wed 12:39:34 PM 20.2186 -68.9586 127° Southeast 457 526 37,000  Level Miami Center
Wed 12:41:25 PM 20.0667 -68.7500 128° Southeast 450 518 37,000  Level San Juan Center
Wed 12:42:41 PM 19.9875 -68.6306 125° Southeast 458 527 37,000  Level Miami Center
Wed 12:43:43 PM 19.8928 -68.4986 127° Southeast 462 532 37,000  Level Miami Center
Wed 12:44:45 PM 19.8136 -68.3886 127° Southeast 463 533 37,000  Level Miami Center
Wed 12:45:27 PM 19.7500 -68.3167 133° Southeast 470 541 37,000  Level San Juan Center
Wed 12:46:27 PM 19.6667 -68.2000 127° Southeast 470 541 37,000  Level San Juan Center
Wed 12:48:28 PM 19.5000 -67.9833 129° Southeast 470 541 37,000 -133 Level San Juan Center
Wed 12:49:28 PM 19.4333 -67.8833 125° Southeast 460 529 36,600 -1,350 Descending San Juan Center
Wed 12:50:28 PM 19.3500 -67.7667 127° Southeast 460 529 34,300 -2,400 Descending San Juan Center
Wed 12:51:28 PM 19.2667 -67.6667 131° Southeast 450 518 31,800 -2,579 Descending San Juan Center
Wed 12:52:29 PM 19.2000 -67.5500 121° Southeast 470 541 29,100 -2,628 Descending San Juan Center
Wed 12:53:29 PM 19.1500 -67.4167 112° Southeast 450 518 26,500 -2,600 Descending San Juan Center
Wed 12:54:29 PM 19.1000 -67.3167 118° Southeast 430 495 23,900 -2,529 Descending San Juan Center
Wed 12:55:30 PM 19.0333 -67.2000 121° Southeast 420 483 21,400 -2,579 Descending San Juan Center
Wed 12:56:30 PM 18.9833 -67.1000 118° Southeast 390 449 18,700 -2,331 Descending San Juan Center
Wed 12:57:31 PM 18.9333 -67.0000 118° Southeast 380 437 16,700 -2,083 Descending San Juan Center
Wed 12:58:31 PM 18.9000 -66.9000 109° East 370 426 14,500 -2,200 Descending San Juan Center
Wed 12:59:31 PM 18.8500 -66.8000 118° Southeast 350 403 12,300 -1,591 Descending San Juan Center
Wed 01:01:32 PM 18.7500 -66.6667 118° Southeast 290 334 9,700 -1,425 Descending San Juan Center
Wed 01:05:33 PM 18.5667 -66.4000 270° West 260 299 3,700 -1,316 Descending San Juan Center
Wed 01:06:33 PM 18.5167 -66.3333 128° Southeast 260 299 3,100 -250 Descending San Juan Center
Wed 01:07:33 PM 18.4833 -66.2833 125° Southeast 250 288 3,200 50 Climbing San Juan Center
Wed 01:08:34 PM 18.4500 -66.2167 118° Southeast 250 288 3,200 -347 Level San Juan Center
Wed 01:09:34 PM 18.4167 -66.1500 118° Southeast 220 253 2,500 -700 Descending San Juan Center
Wed 01:10:00 PM 18.4333 -66.0000 270° West  Level FlightAware Approximate
Wed 01:11:00 PM 18.4333 -66.0000 270° West  Level FlightAware Approximate
Wed 01:18:00 PM 18.4394 -66.0021 270° West  Level Estimated

Login

Don't have an account? Register now (free) for customized features, flight alerts, and more!